.
WxDataArchive / Data Records for 2016-04-10
2016-04-09 April 2016 2016-04-11

Data Records for Sunday, 10 April 2016

Time	Temp	Chill	HIndex	Humid	Dewpt	 Wind 	HiWind	WindDir	Rain 	Barom
-----	----	-----	------	-----	-----	------	------	-------	-----	-----
00:00	29.7	29.7	29.7	68	20.5	1	5	68	0.00	30.240 
00:05	29.7	29.7	29.7	68	20.5	1	5	112	0.00	30.240 
00:10	29.7	29.7	29.7	68	20.5	1	5	112	0.00	30.240 
00:15	29.7	29.7	29.7	69	20.8	0	3	90	0.00	30.232 
00:20	29.7	29.7	29.7	70	21.1	0	2	90	0.00	30.232 
00:25	29.7	29.7	29.7	70	21.1	1	4	90	0.00	30.232 
00:30	29.7	29.7	29.7	70	21.1	0	1	90	0.00	30.230 
00:35	29.7	29.7	29.7	70	21.1	0	4	90	0.00	30.230 
00:40	29.7	29.7	29.7	69	20.8	1	3	112	0.00	30.230 
00:45	29.7	29.7	29.7	70	21.1	1	2	112	0.00	30.225 
00:50	29.7	29.7	29.7	70	21.1	0	3	90	0.00	30.225 
00:55	29.7	29.7	29.7	70	21.1	0	2	112	0.00	30.225 
01:00	29.7	29.7	29.7	70	21.1	0	2	112	0.00	30.231 
01:05	29.7	29.7	29.7	70	21.1	0	4	112	0.00	30.231 
01:10	29.7	29.7	29.7	71	21.5	0	2	112	0.00	30.231 
01:15	29.7	29.7	29.7	72	21.8	0	2	112	0.00	30.228 
01:20	29.7	29.7	29.7	72	21.8	0	2	112	0.00	30.228 
01:25	29.7	29.7	29.7	72	21.8	0	2	112	0.00	30.228 
01:30	29.8	29.8	29.8	72	21.9	0	1	112	0.00	30.226 
01:35	29.8	29.8	29.8	71	21.6	0	3	112	0.00	30.226 
01:40	29.7	29.7	29.7	71	21.5	0	2	112	0.00	30.226 
01:45	29.7	29.7	29.7	71	21.5	1	4	112	0.00	30.218 
01:50	29.7	29.7	29.7	71	21.5	1	5	112	0.00	30.218 
01:55	29.7	29.7	29.7	71	21.5	0	2	112	0.00	30.218 
02:00	29.7	29.7	29.7	71	21.5	0	3	112	0.00	30.219 
02:05	29.5	29.5	29.5	71	21.3	0	3	68	0.00	30.219 
02:10	29.5	29.5	29.5	72	21.6	0	2	68	0.00	30.219 
02:15	29.4	29.4	29.4	73	21.8	0	2	90	0.00	30.215 
02:20	29.4	29.4	29.4	73	21.8	0	4	90	0.00	30.215 
02:25	29.3	29.3	29.3	74	22.1	0	3	135	0.00	30.215 
02:30	29.3	29.3	29.3	74	22.1	0	2	135	0.00	30.213 
02:35	29.3	29.3	29.3	75	22.4	0	3	135	0.00	30.213 
02:40	29.1	29.1	29.1	76	22.5	0	2	135	0.00	30.213 
02:45	29.1	29.1	29.1	76	22.5	0	2	135	0.00	30.210 
02:50	29.0	29.0	29.0	77	22.7	0	1	135	0.00	30.210 
02:55	29.0	29.0	29.0	77	22.7	0	1	135	0.00	30.210 
03:00	28.8	28.8	28.8	78	22.8	0	1	135	0.00	30.216 
03:05	28.8	28.8	28.8	78	22.8	0	2	135	0.00	30.216 
03:10	28.7	28.7	28.7	79	23.0	0	1	135	0.00	30.216 
03:15	28.7	28.7	28.7	80	23.3	0	2	135	0.00	30.212 
03:20	28.7	28.7	28.7	80	23.3	0	2	135	0.00	30.212 
03:25	28.7	28.7	28.7	80	23.3	0	1	135	0.00	30.212 
03:30	28.7	28.7	28.7	81	23.6	0	1	135	0.00	30.195 
03:35	28.8	28.8	28.8	81	23.7	0	2	135	0.00	30.195 
03:40	28.8	28.8	28.8	81	23.7	0	2	135	0.00	30.195 
03:45	29.0	29.0	29.0	81	23.9	0	1	135	0.00	30.200 
03:50	29.0	29.0	29.0	81	23.9	0	2	135	0.00	30.200 
03:55	29.1	29.1	29.1	81	24.0	1	3	112	0.00	30.200 
04:00	29.1	29.1	29.1	80	23.7	0	3	112	0.00	30.195 
04:05	29.3	29.3	29.3	80	23.9	1	3	112	0.00	30.195 
04:10	29.4	29.4	29.4	79	23.7	0	3	112	0.00	30.195 
04:15	29.4	29.4	29.4	79	23.7	1	3	90	0.00	30.193 
04:20	29.4	29.4	29.4	79	23.7	0	2	90	0.00	30.193 
04:25	29.5	29.5	29.5	79	23.8	1	4	90	0.00	30.193 
04:30	29.7	29.7	29.7	79	24.0	0	3	135	0.00	30.186 
04:35	29.7	29.7	29.7	78	23.7	1	3	135	0.00	30.186 
04:40	29.7	29.7	29.7	78	23.7	0	3	112	0.00	30.186 
04:45	29.8	29.8	29.8	77	23.5	1	4	112	0.00	30.185 
04:50	29.8	29.8	29.8	77	23.5	1	3	112	0.00	30.185 
04:55	29.8	29.8	29.8	77	23.5	1	4	112	0.00	30.185 
05:00	30.0	30.0	30.0	77	23.7	1	4	112	0.00	30.181 
05:05	30.0	30.0	30.0	77	23.7	1	7	112	0.00	30.181 
05:10	30.0	30.0	30.0	76	23.4	1	4	112	0.00	30.181 
05:15	30.0	30.0	30.0	76	23.4	1	3	112	0.00	30.180 
05:20	30.1	30.1	30.1	75	23.2	1	6	135	0.00	30.180 
05:25	30.1	30.1	30.1	75	23.2	0	2	112	0.00	30.180 
05:30	30.1	30.1	30.1	75	23.2	1	5	112	0.00	30.184 
05:35	30.1	30.1	30.1	75	23.2	1	3	90	0.00	30.184 
05:40	30.1	30.1	30.1	77	23.8	3	10	90	0.00	30.184 
05:45	29.7	29.7	29.7	81	24.6	3	6	112	0.00	30.180 
05:50	29.3	29.3	29.3	83	24.8	1	4	90	0.00	30.180 
05:55	29.0	29.0	29.0	85	25.1	2	6	90	0.00	30.180 
06:00	28.8	28.8	28.8	86	25.2	1	2	112	0.00	30.179 
06:05	28.7	28.7	28.7	87	25.3	1	5	112	0.00	30.179 
06:10	28.7	28.7	28.7	88	25.6	1	3	112	0.00	30.179 
06:15	28.5	28.5	28.5	88	25.4	1	4	112	0.00	30.177 
06:20	28.5	28.5	28.5	88	25.4	1	5	112	0.00	30.177 
06:25	28.5	28.5	28.5	88	25.4	1	5	90	0.00	30.177 
06:30	28.5	28.5	28.5	88	25.4	1	5	90	0.00	30.174 
06:35	28.5	28.5	28.5	89	25.7	0	3	90	0.00	30.174 
06:40	28.5	28.5	28.5	89	25.7	1	4	112	0.00	30.174 
06:45	28.5	28.5	28.5	89	25.7	1	4	45	0.00	30.177 
06:50	28.5	28.5	28.5	89	25.7	2	4	112	0.00	30.177 
06:55	28.5	28.5	28.5	88	25.4	1	4	112	0.00	30.177 
07:00	28.7	28.7	28.7	88	25.6	1	3	90	0.00	30.176 
07:05	28.7	28.7	28.7	88	25.6	1	4	112	0.00	30.176 
07:10	28.7	28.7	28.7	88	25.6	1	3	112	0.00	30.176 
07:15	28.8	28.8	28.8	88	25.7	1	4	112	0.00	30.169 
07:20	28.8	28.8	28.8	88	25.7	2	5	90	0.00	30.169 
07:25	28.8	28.8	28.8	88	25.7	2	4	112	0.00	30.169 
07:30	28.8	28.8	28.8	87	25.4	1	6	112	0.00	30.167 
07:35	29.0	29.0	29.0	87	25.6	1	5	112	0.00	30.167 
07:40	29.1	29.1	29.1	87	25.7	1	3	90	0.00	30.167 
07:45	29.1	29.1	29.1	87	25.7	1	3	112	0.00	30.166 
07:50	29.3	29.3	29.3	86	25.6	1	5	112	0.00	30.166 
07:55	29.4	29.4	29.4	86	25.7	1	5	112	0.00	30.166 
08:00	29.4	29.4	29.4	86	25.7	1	5	90	0.00	30.166 
08:05	29.5	29.5	29.5	85	25.6	2	6	90	0.00	30.166 
08:10	29.7	29.7	29.7	85	25.8	2	6	90	0.00	30.166 
08:15	29.7	29.7	29.7	84	25.5	2	6	90	0.00	30.160 
08:20	29.8	29.8	29.8	84	25.6	2	6	112	0.00	30.160 
08:25	29.8	29.8	29.8	83	25.3	2	6	112	0.00	30.160 
08:30	30.0	30.0	30.0	83	25.5	1	6	90	0.00	30.143 
08:35	30.0	30.0	30.0	82	25.2	2	5	90	0.00	30.143 
08:40	30.1	30.1	30.1	82	25.3	2	7	112	0.00	30.143 
08:45	30.1	30.1	30.1	81	25.0	2	9	135	0.00	30.135 
08:50	30.3	30.3	30.3	81	25.2	2	5	112	0.00	30.135 
08:55	30.4	30.4	30.4	80	25.0	2	7	112	0.00	30.135 
09:00	30.6	30.6	30.6	80	25.2	2	6	135	0.00	30.127 
09:05	30.7	30.7	30.7	79	25.0	3	5	90	0.00	30.127 
09:10	30.9	30.9	30.9	78	24.9	2	7	90	0.00	30.127 
09:15	31.0	31.0	31.0	77	24.7	3	10	90	0.00	30.123 
09:20	31.3	31.3	31.3	76	24.6	2	6	90	0.00	30.123 
09:25	31.5	31.5	31.5	75	24.5	2	6	90	0.00	30.123 
09:30	31.6	31.6	31.6	74	24.3	2	6	112	0.00	30.119 
09:35	31.9	31.9	31.9	74	24.6	2	7	90	0.00	30.119 
09:40	32.2	32.2	32.2	73	24.5	2	9	112	0.00	30.119 
09:45	32.5	32.5	32.5	71	24.2	3	11	112	0.00	30.110 
09:50	32.8	29.0	32.8	70	24.1	4	10	90	0.00	30.110 
09:55	32.9	32.9	32.9	69	23.9	3	10	112	0.00	30.110 
10:00	32.8	29.0	32.8	69	23.8	4	8	90	0.00	30.103 
10:05	32.9	32.9	32.9	70	24.2	3	7	112	0.00	30.103 
10:10	32.9	28.1	32.9	69	23.9	5	10	90	0.00	30.103 
10:15	33.1	29.3	33.1	70	24.4	4	11	112	0.00	30.091 
10:20	33.2	33.2	33.2	70	24.5	3	10	112	0.00	30.091 
10:25	33.5	33.5	33.5	70	24.8	3	6	90	0.00	30.091 
10:30	34.0	34.0	34.0	70	25.3	3	10	90	0.00	30.085 
10:35	34.6	31.1	34.6	69	25.5	4	11	90	0.00	30.085 
10:40	35.2	35.2	35.2	69	26.1	3	11	112	0.00	30.085 
10:45	35.5	35.5	35.5	67	25.6	3	10	90	0.00	30.077 
10:50	35.8	32.5	35.8	66	25.6	4	9	90	0.00	30.077 
10:55	36.2	32.9	36.2	66	26.0	4	7	90	0.00	30.077 
11:00	36.8	36.8	36.8	65	26.2	3	6	112	0.00	30.069 
11:05	36.9	36.9	36.9	65	26.3	3	6	90	0.00	30.069 
11:10	36.8	36.8	36.8	64	25.8	3	10	112	0.00	30.069 
11:15	36.8	36.8	36.8	65	26.2	3	6	112	0.00	30.056 
11:20	36.9	36.9	36.9	65	26.3	3	9	112	0.00	30.056 
11:25	37.0	37.0	37.0	65	26.3	3	11	90	0.01	30.056 
11:30	37.8	37.8	37.8	63	26.4	3	8	112	0.00	30.050 
11:35	38.6	38.6	38.6	63	27.1	3	6	90	0.01	30.050 
11:40	39.1	36.3	39.1	61	26.8	4	10	90	0.00	30.050 
11:45	39.2	39.2	39.2	61	26.9	3	6	112	0.01	30.036 
11:50	39.2	36.4	39.2	61	26.9	4	12	112	0.00	30.036 
11:55	38.9	36.0	38.9	59	25.8	4	7	90	0.00	30.036 
12:00	38.6	38.6	38.6	60	25.9	3	8	90	0.00	30.032 
12:05	38.5	38.5	38.5	59	25.4	3	8	90	0.00	30.032 
12:10	38.3	35.4	38.3	59	25.2	4	10	90	0.00	30.032 
12:15	38.3	35.4	38.3	60	25.6	4	7	90	0.00	30.023 
12:20	38.6	35.7	38.6	60	25.9	4	10	90	0.00	30.023 
12:25	38.8	38.8	38.8	60	26.1	3	9	112	0.00	30.023 
12:30	38.8	38.8	38.8	60	26.1	2	9	112	0.00	30.018 
12:35	38.8	35.9	38.8	59	25.7	4	9	90	0.00	30.018 
12:40	38.8	38.8	38.8	59	25.7	2	4	112	0.00	30.018 
12:45	38.9	38.9	38.9	60	26.2	1	4	112	0.00	30.006 
12:50	38.9	38.9	38.9	59	25.8	2	6	90	0.00	30.006 
12:55	38.8	38.8	38.8	60	26.1	2	4	112	0.00	30.006 
13:00	38.8	38.8	38.8	60	26.1	1	4	112	0.00	30.004 
13:05	38.8	38.8	38.8	60	26.1	2	6	112	0.00	30.004 
13:10	38.8	38.8	38.8	61	26.5	2	6	112	0.00	30.004 
13:15	38.8	38.8	38.8	63	27.3	2	5	112	0.00	30.005 
13:20	38.8	38.8	38.8	65	28.1	2	10	90	0.00	30.005 
13:25	38.6	38.6	38.6	69	29.3	2	5	90	0.00	30.005 
13:30	38.5	38.5	38.5	71	29.9	1	4	135	0.00	30.002 
13:35	38.3	38.3	38.3	74	30.8	1	4	90	0.00	30.002 
13:40	38.2	38.2	38.2	75	31.0	2	5	90	0.00	30.002 
13:45	38.2	38.2	38.2	77	31.6	2	5	90	0.00	29.989 
13:50	38.0	38.0	38.0	78	31.8	2	7	112	0.00	29.989 
13:55	38.2	38.2	38.2	80	32.6	1	4	68	0.00	29.989 
14:00	38.2	38.2	38.2	80	32.6	1	5	112	0.00	29.979 
14:05	38.3	38.3	38.3	79	32.4	1	4	112	0.00	29.979 
14:10	38.5	38.5	38.5	78	32.2	1	5	112	0.00	29.979 
14:15	38.8	38.8	38.8	78	32.5	1	3	90	0.00	29.972 
14:20	39.1	39.1	39.1	77	32.5	1	3	90	0.00	29.972 
14:25	39.3	39.3	39.3	77	32.7	1	3	135	0.00	29.972 
14:30	39.5	39.5	39.5	78	33.2	1	5	112	0.00	29.966 
14:35	39.6	39.6	39.6	77	33.0	1	5	112	0.00	29.966 
14:40	39.9	39.9	39.9	78	33.6	1	5	112	0.00	29.966 
14:45	40.1	40.1	40.1	77	33.5	1	3	135	0.00	29.955 
14:50	40.2	40.2	40.2	77	33.6	1	3	112	0.00	29.955 
14:55	40.5	40.5	40.5	77	33.9	2	6	112	0.00	29.955 
15:00	40.8	40.8	40.8	77	34.2	1	6	112	0.01	29.939 
15:05	40.9	40.9	40.9	77	34.3	2	6	112	0.00	29.939 
15:10	40.9	40.9	40.9	78	34.6	1	4	135	0.00	29.939 
15:15	41.1	41.1	41.1	78	34.8	1	3	112	0.00	29.928 
15:20	41.1	41.1	41.1	78	34.8	1	3	90	0.00	29.928 
15:25	41.2	41.2	41.2	80	35.5	0	5	90	0.01	29.928 
15:30	41.2	41.2	41.2	80	35.5	1	2	135	0.00	29.920 
15:35	41.2	41.2	41.2	80	35.5	0	3	135	0.00	29.920 
15:40	41.2	41.2	41.2	80	35.5	0	2	135	0.00	29.920 
15:45	41.2	41.2	41.2	80	35.5	0	2	135	0.00	29.909 
15:50	41.3	41.3	41.3	80	35.6	0	2	135	0.00	29.909 
15:55	41.5	41.5	41.5	79	35.5	0	2	135	0.00	29.909 
16:00	41.6	41.6	41.6	79	35.6	0	2	135	0.00	29.895 
16:05	41.9	41.9	41.9	80	36.2	0	2	135	0.00	29.895 
16:10	42.1	42.1	42.1	81	36.7	1	3	135	0.00	29.895 
16:15	42.3	42.3	42.3	80	36.6	0	2	135	0.00	29.885 
16:20	42.5	42.5	42.5	80	36.8	0	1	135	0.00	29.885 
16:25	42.6	42.6	42.6	80	36.9	0	2	135	0.01	29.885 
16:30	42.8	42.8	42.8	79	36.7	0	2	135	0.00	29.873 
16:35	42.8	42.8	42.8	79	36.7	0	2	135	0.00	29.873 
16:40	42.9	42.9	42.9	78	36.5	1	3	135	0.00	29.873 
16:45	43.1	43.1	43.1	79	37.0	0	2	135	0.00	29.859 
16:50	43.2	43.2	43.2	79	37.1	1	3	135	0.00	29.859 
16:55	43.2	43.2	43.2	79	37.1	1	3	135	0.00	29.859 
17:00	43.5	43.5	43.5	78	37.1	1	3	135	0.00	29.851 
17:05	43.6	43.6	43.6	79	37.5	1	2	135	0.00	29.851 
17:10	43.8	43.8	43.8	78	37.4	1	3	135	0.00	29.851 
17:15	43.9	43.9	43.9	78	37.5	1	3	135	0.00	29.844 
17:20	44.1	44.1	44.1	78	37.7	0	2	135	0.00	29.844 
17:25	44.1	44.1	44.1	79	38.0	0	2	135	0.00	29.844 
17:30	44.2	44.2	44.2	78	37.8	1	4	135	0.00	29.841 
17:35	44.3	44.3	44.3	77	37.6	1	4	112	0.00	29.841 
17:40	44.6	44.6	44.6	78	38.2	1	3	112	0.00	29.841 
17:45	44.8	44.8	44.8	78	38.4	1	3	112	0.00	29.836 
17:50	45.1	45.1	45.1	77	38.3	1	3	112	0.00	29.836 
17:55	45.4	45.4	45.4	77	38.6	0	2	112	0.00	29.836 
18:00	45.5	45.5	45.5	77	38.7	1	3	112	0.00	29.829 
18:05	45.5	45.5	45.5	78	39.0	0	2	112	0.00	29.829 
18:10	45.5	45.5	45.5	79	39.4	0	3	112	0.00	29.829 
18:15	45.5	45.5	45.5	80	39.7	0	2	112	0.00	29.827 
18:20	45.5	45.5	45.5	81	40.0	1	3	112	0.00	29.827 
18:25	45.4	45.4	45.4	82	40.2	0	2	112	0.01	29.827 
18:30	45.4	45.4	45.4	83	40.5	0	1	112	0.00	29.824 
18:35	45.4	45.4	45.4	84	40.9	0	2	112	0.00	29.824 
18:40	45.4	45.4	45.4	84	40.9	0	0	---	0.00	29.824 
18:45	45.5	45.5	45.5	85	41.3	0	1	112	0.00	29.824 
18:50	45.7	45.7	45.7	85	41.5	0	1	112	0.00	29.824 
18:55	45.5	45.5	45.5	85	41.3	0	0	---	0.00	29.824 
19:00	45.5	45.5	45.5	86	41.6	0	0	---	0.00	29.822 
19:05	45.5	45.5	45.5	86	41.6	0	0	---	0.00	29.822 
19:10	45.5	45.5	45.5	87	41.9	0	0	---	0.01	29.822 
19:15	45.5	45.5	45.5	87	41.9	0	0	---	0.00	29.823 
19:20	45.5	45.5	45.5	87	41.9	0	0	---	0.01	29.823 
19:25	45.5	45.5	45.5	87	41.9	0	0	---	0.00	29.823 
19:30	45.5	45.5	45.5	88	42.2	0	0	---	0.00	29.824 
19:35	45.5	45.5	45.5	88	42.2	0	0	---	0.01	29.824 
19:40	45.5	45.5	45.5	89	42.4	0	0	---	0.00	29.824 
19:45	45.5	45.5	45.5	89	42.4	0	0	---	0.00	29.822 
19:50	45.5	45.5	45.5	90	42.7	0	0	---	0.00	29.822 
19:55	45.5	45.5	45.5	90	42.7	0	0	---	0.00	29.822 
20:00	45.5	45.5	45.5	90	42.7	0	0	---	0.01	29.816 
20:05	45.7	45.7	45.7	90	42.9	0	0	---	0.00	29.816 
20:10	45.8	45.8	45.8	91	43.3	0	0	---	0.00	29.816 
20:15	46.1	46.1	46.1	92	43.9	0	0	---	0.01	29.814 
20:20	46.8	46.8	46.8	92	44.6	0	2	112	0.01	29.814 
20:25	47.7	47.7	47.7	92	45.5	0	2	112	0.00	29.814 
20:30	48.3	48.3	48.3	93	46.4	0	2	112	0.02	29.807 
20:35	48.8	48.8	48.8	93	46.9	0	2	112	0.00	29.807 
20:40	49.1	49.1	49.1	93	47.2	0	2	112	0.01	29.807 
20:45	49.2	49.2	49.2	93	47.3	0	4	112	0.00	29.803 
20:50	49.4	49.4	49.4	93	47.5	0	4	90	0.01	29.803 
20:55	49.4	49.4	49.4	93	47.5	0	2	90	0.00	29.803 
21:00	49.5	49.5	49.5	93	47.6	0	2	90	0.00	29.802 
21:05	49.5	49.5	49.5	93	47.6	0	2	90	0.01	29.802 
21:10	49.5	49.5	49.5	93	47.6	0	2	90	0.00	29.802 
21:15	49.6	49.6	49.6	93	47.7	0	2	90	0.00	29.803 
21:20	49.6	49.6	49.6	94	47.9	0	2	90	0.01	29.803 
21:25	49.8	49.8	49.8	94	48.1	0	2	90	0.00	29.803 
21:30	49.8	49.8	49.8	94	48.1	1	8	90	0.00	29.804 
21:35	49.9	49.9	49.9	94	48.2	0	2	90	0.00	29.804 
21:40	50.1	50.1	50.1	94	48.4	1	3	68	0.00	29.804 
21:45	50.1	50.1	50.1	94	48.4	1	4	45	0.01	29.811 
21:50	50.1	50.1	50.1	94	48.4	0	2	68	0.00	29.811 
21:55	50.2	50.2	50.2	94	48.5	1	3	90	0.00	29.811 
22:00	50.4	50.4	50.4	94	48.7	1	3	90	0.01	29.812 
22:05	50.5	50.5	50.5	94	48.8	1	3	338	0.00	29.812 
22:10	50.7	50.7	50.7	94	49.0	1	4	248	0.00	29.812 
22:15	50.8	50.8	50.8	95	49.4	1	3	248	0.00	29.803 
22:20	50.8	50.8	50.8	95	49.4	1	2	248	0.00	29.803 
22:25	50.8	50.8	50.8	95	49.4	1	3	248	0.00	29.803 
22:30	51.0	51.0	51.0	95	49.6	0	2	270	0.00	29.805 
22:35	51.0	51.0	51.0	95	49.6	0	3	270	0.00	29.805 
22:40	51.0	51.0	51.0	95	49.6	1	2	270	0.00	29.805 
22:45	51.0	51.0	51.0	95	49.6	0	3	248	0.00	29.802 
22:50	51.0	51.0	51.0	95	49.6	1	11	248	0.00	29.802 
22:55	51.1	51.1	51.1	95	49.7	1	5	270	0.00	29.802 
23:00	51.1	51.1	51.1	95	49.7	1	4	270	0.00	29.799 
23:05	51.1	51.1	51.1	95	49.7	0	2	270	0.00	29.799 
23:10	51.1	51.1	51.1	95	49.7	0	2	270	0.01	29.799 
23:15	51.1	51.1	51.1	95	49.7	1	3	270	0.00	29.799 
23:20	51.1	51.1	51.1	95	49.7	1	5	248	0.00	29.799 
23:25	51.1	51.1	51.1	95	49.7	1	4	248	0.00	29.799 
23:30	51.1	51.1	51.1	95	49.7	0	3	248	0.00	29.794 
23:35	51.1	51.1	51.1	95	49.7	1	3	248	0.00	29.794 
23:40	51.1	51.1	51.1	95	49.7	1	10	248	0.00	29.794 
23:45	51.1	51.1	51.1	95	49.7	1	6	270	0.00	29.792 
23:50	51.1	51.1	51.1	95	49.7	1	5	292	0.00	29.792 
23:55	51.0	51.0	51.0	95	49.6	1	5	225	0.00	29.792 

CoCoRaHS
IN-AL-39
A2 Web Hosting
Creative Commons License
GoDaddy
search engine by freefind advanced

loaded 2018-11-17 06:25:25 • last modified 2010-11-18 10:43:29
Privacy PolicyDisclaimer
• wx.awcolley.com is powered by PmWiki v.2002016 •
• all content (unless otherwise noted) © 2018 A W Colley